Time;durP1;ratioP1;P1;durP2;ratioP2;P2;SDS_P1;SDS_P2;PMS_P1;PMS_P2;Temp;Humidity;BMP_temperature;BMP_pressure;BME280_temperature;BME280_humidity;BME280_pressure;Samples;Min_cycle;Max_cycle;Signal;HPM_P1;HPM_P2
2021/06/27 00:01:13;;;;;;;16.30;14.60;;;;;;;20.84;58.49;101553.97;5056890;28;20401;-64
2021/06/27 00:03:38;;;;;;;16.33;14.87;;;;;;;20.85;58.52;101552.19;5060113;28;20423;-64
2021/06/27 00:06:05;;;;;;;16.80;15.40;;;;;;;21.14;57.61;101558.69;5060235;28;20412;-64
2021/06/27 00:08:30;;;;;;;16.10;14.70;;;;;;;21.25;57.52;101553.13;5060577;28;20170;-64
2021/06/27 00:10:58;;;;;;;16.20;14.80;;;;;;;21.02;57.93;101554.50;5060322;28;20469;-64
2021/06/27 00:13:24;;;;;;;16.17;14.77;;;;;;;20.65;59.16;101547.28;5059273;28;20431;-64
2021/06/27 00:15:50;;;;;;;16.83;15.20;;;;;;;20.70;59.02;101556.00;5060358;28;20466;-65
2021/06/27 00:18:18;;;;;;;16.10;14.50;;;;;;;20.71;58.88;101552.47;5060203;28;20508;-65
2021/06/27 00:20:46;;;;;;;15.20;13.70;;;;;;;20.37;59.51;101553.09;5059932;28;20449;-65
2021/06/27 00:23:13;;;;;;;16.20;14.80;;;;;;;20.75;58.71;101561.25;5060015;28;20396;-65
2021/06/27 00:25:39;;;;;;;16.50;14.87;;;;;;;20.34;60.05;101556.66;5059941;28;20669;-65
2021/06/27 00:28:05;;;;;;;16.57;15.00;;;;;;;20.71;58.87;101563.06;5059994;28;20459;-65
2021/06/27 00:30:30;;;;;;;17.00;15.20;;;;;;;20.77;58.60;101556.75;5060445;28;20416;-65
2021/06/27 00:32:56;;;;;;;17.50;16.00;;;;;;;20.84;58.47;101555.75;5058744;28;20406;-63
2021/06/27 00:35:22;;;;;;;17.50;15.97;;;;;;;20.88;58.48;101544.19;5059432;28;20290;-64
2021/06/27 00:37:48;;;;;;;16.93;15.43;;;;;;;20.75;58.97;101548.00;5060191;28;20629;-64
2021/06/27 00:40:16;;;;;;;16.47;14.97;;;;;;;20.56;59.67;101550.97;5059669;28;20244;-64
2021/06/27 00:42:42;;;;;;;18.57;16.87;;;;;;;20.77;59.20;101552.34;5059221;28;20165;-64
2021/06/27 00:45:10;;;;;;;18.13;16.33;;;;;;;20.57;59.65;101549.19;5045973;28;20707;-65
2021/06/27 00:47:36;;;;;;;18.37;16.67;;;;;;;20.51;59.81;101547.53;5059252;28;20485;-63
2021/06/27 00:50:04;;;;;;;17.67;15.97;;;;;;;20.61;59.70;101548.25;5049300;28;20406;-63
2021/06/27 00:52:29;;;;;;;17.07;15.47;;;;;;;20.51;59.59;101544.88;5039437;28;20531;-64
2021/06/27 00:54:54;;;;;;;16.87;15.37;;;;;;;20.43;60.08;101549.44;5039053;28;20478;-65
2021/06/27 00:57:20;;;;;;;18.80;15.73;;;;;;;20.07;61.53;101550.06;5039199;28;20249;-65
2021/06/27 00:59:46;;;;;;;17.80;16.10;;;;;;;20.55;59.77;101543.03;5039432;28;20515;-65
2021/06/27 01:02:11;;;;;;;18.37;16.63;;;;;;;20.57;59.80;101546.56;5047550;28;20177;-65
2021/06/27 01:04:37;;;;;;;16.30;14.90;;;;;;;20.61;59.57;101548.25;5058971;28;20228;-65
2021/06/27 01:07:04;;;;;;;18.00;16.40;;;;;;;20.51;59.78;101540.47;5059222;28;20186;-65
2021/06/27 01:09:29;;;;;;;18.87;17.10;;;;;;;20.54;59.62;101536.88;5058808;28;20442;-65
2021/06/27 01:11:57;;;;;;;19.97;17.90;;;;;;;20.45;59.98;101542.34;5058584;28;20455;-65
2021/06/27 01:14:22;;;;;;;19.07;17.33;;;;;;;20.15;60.89;101540.22;5059234;28;20178;-65
2021/06/27 01:16:47;;;;;;;18.63;16.63;;;;;;;19.79;62.06;101539.91;5058240;28;20394;-65
2021/06/27 01:19:12;;;;;;;18.67;16.97;;;;;;;20.08;61.13;101530.66;5058907;28;20169;-65
2021/06/27 01:21:38;;;;;;;18.23;16.47;;;;;;;20.11;61.23;101535.88;5059344;28;20165;-65
2021/06/27 01:24:04;;;;;;;18.83;17.03;;;;;;;20.39;60.43;101526.56;5058403;28;20263;-65
2021/06/27 01:26:29;;;;;;;18.83;17.13;;;;;;;20.33;60.67;101535.50;5058900;28;20201;-65
2021/06/27 01:28:56;;;;;;;17.90;16.33;;;;;;;20.33;60.74;101536.38;5058954;28;20166;-64
2021/06/27 01:31:22;;;;;;;19.97;18.17;;;;;;;20.11;61.04;101535.03;5057719;28;20223;-64
2021/06/27 01:33:47;;;;;;;19.80;17.90;;;;;;;20.01;61.57;101534.28;5057467;28;20469;-64
2021/06/27 01:36:13;;;;;;;27.47;24.60;;;;;;;19.98;61.45;101537.84;5058652;28;20417;-64
2021/06/27 01:38:38;;;;;;;18.43;16.73;;;;;;;20.15;61.21;101532.28;5058133;28;20181;-64
2021/06/27 01:41:05;;;;;;;18.27;16.37;;;;;;;19.28;63.53;101537.13;5058265;28;20507;-64
2021/06/27 01:43:30;;;;;;;18.83;17.13;;;;;;;20.06;61.46;101536.88;5058374;28;20177;-64
2021/06/27 01:45:59;;;;;;;19.37;17.13;;;;;;;20.10;61.01;101538.56;5058161;28;20408;-64
2021/06/27 01:48:25;;;;;;;19.33;16.00;;;;;;;19.87;61.80;101538.94;5058304;28;20211;-65
2021/06/27 01:50:53;;;;;;;18.60;16.80;;;;;;;20.13;60.49;101538.50;5058817;28;20474;-65
2021/06/27 01:53:21;;;;;;;18.13;16.53;;;;;;;19.67;62.16;101534.81;5057868;28;20219;-65
2021/06/27 01:55:47;;;;;;;19.83;18.00;;;;;;;19.91;61.30;101527.41;5057916;28;20387;-65
2021/06/27 01:58:13;;;;;;;17.53;15.93;;;;;;;19.93;60.91;101533.53;5058824;28;20392;-64
2021/06/27 02:00:39;;;;;;;19.43;17.63;;;;;;;19.81;62.41;101532.00;5057809;28;20177;-64
2021/06/27 02:03:04;;;;;;;18.80;17.00;;;;;;;19.90;62.07;101531.81;5057811;28;20440;-65
2021/06/27 02:05:30;;;;;;;19.17;17.47;;;;;;;19.51;62.76;101524.47;5058475;28;20196;-64
2021/06/27 02:07:58;;;;;;;18.17;16.50;;;;;;;19.81;62.48;101521.41;5057806;28;20536;-65
2021/06/27 02:10:24;;;;;;;19.10;17.23;;;;;;;19.33;63.98;101519.44;5057810;28;20481;-64
2021/06/27 02:12:53;;;;;;;19.33;17.53;;;;;;;19.12;64.44;101524.16;5058062;28;20687;-64
2021/06/27 02:15:18;;;;;;;19.17;17.33;;;;;;;19.30;64.13;101517.72;5057879;28;20416;-65
2021/06/27 02:18:06;;;;;;;19.03;17.23;;;;;;;19.67;62.76;101514.53;5057109;28;20396;-64
2021/06/27 02:20:32;;;;;;;20.40;18.20;;;;;;;19.08;64.44;101511.88;5057569;28;20188;-64
2021/06/27 02:22:57;;;;;;;20.10;18.13;;;;;;;19.84;61.72;101516.06;5057759;28;20638;-64
2021/06/27 02:25:22;;;;;;;19.17;17.43;;;;;;;19.99;61.11;101502.56;5057104;28;20625;-63
2021/06/27 02:27:47;;;;;;;19.50;17.40;;;;;;;20.09;60.65;101510.34;5057985;28;20205;-64
2021/06/27 02:30:14;;;;;;;18.97;16.97;;;;;;;20.30;59.88;101509.94;5058321;28;20485;-64
2021/06/27 02:32:39;;;;;;;19.33;17.63;;;;;;;20.18;60.08;101510.19;5057744;28;20224;-64
2021/06/27 02:35:06;;;;;;;19.60;17.80;;;;;;;20.27;59.94;101509.13;5057880;28;20433;-64
2021/06/27 02:37:31;;;;;;;18.70;16.90;;;;;;;20.04;60.74;101502.50;5058194;28;20264;-64
2021/06/27 02:39:59;;;;;;;19.03;17.30;;;;;;;20.24;59.74;101501.25;5057033;28;20441;-64
2021/06/27 02:42:25;;;;;;;18.77;16.97;;;;;;;20.25;60.40;101497.69;5057605;28;20170;-64
2021/06/27 02:44:50;;;;;;;19.83;17.93;;;;;;;20.19;59.67;101504.84;5058420;28;20405;-63
2021/06/27 02:47:16;;;;;;;18.63;16.90;;;;;;;20.40;59.25;101507.13;5057595;28;20212;-64
2021/06/27 02:49:43;;;;;;;19.30;17.37;;;;;;;20.22;60.09;101495.13;5057861;28;20220;-65
2021/06/27 02:52:08;;;;;;;19.03;17.20;;;;;;;20.27;60.47;101498.53;5058125;28;20786;-65
2021/06/27 02:54:33;;;;;;;34.27;30.43;;;;;;;20.13;60.73;101499.69;5057720;28;20402;-65
2021/06/27 02:56:58;;;;;;;19.23;17.30;;;;;;;20.08;60.97;101503.28;5057713;28;20181;-64
2021/06/27 02:59:24;;;;;;;18.20;16.47;;;;;;;20.22;60.51;101500.41;5058193;28;20556;-65
2021/06/27 03:01:49;;;;;;;19.27;17.47;;;;;;;20.38;60.37;101501.88;5057421;28;20166;-65
2021/06/27 03:04:14;;;;;;;19.23;17.37;;;;;;;20.35;59.39;101509.88;5057492;28;20173;-64
2021/06/27 03:06:40;;;;;;;20.37;18.27;;;;;;;20.51;58.39;101508.69;5058201;28;20574;-64
2021/06/27 03:09:05;;;;;;;19.40;17.40;;;;;;;20.24;59.70;101509.19;5057572;28;20174;-64
2021/06/27 03:11:30;;;;;;;19.53;17.60;;;;;;;20.03;60.13;101511.31;5057579;28;20488;-64
2021/06/27 03:13:56;;;;;;;20.00;18.20;;;;;;;19.70;61.42;101505.69;5055619;28;20185;-64
2021/06/27 03:16:21;;;;;;;19.13;17.23;;;;;;;19.87;60.75;101496.63;5045808;28;20356;-64
2021/06/27 03:18:47;;;;;;;19.47;17.53;;;;;;;19.95;60.37;101502.66;5057138;28;20189;-64
2021/06/27 03:21:12;;;;;;;19.33;17.43;;;;;;;20.22;59.59;101505.72;5042889;28;20308;-64
2021/06/27 03:23:38;;;;;;;17.93;16.17;;;;;;;20.09;60.06;101505.91;5036995;28;20474;-64
2021/06/27 03:26:03;;;;;;;17.40;15.83;;;;;;;20.36;59.11;101508.94;5036481;28;20479;-64
2021/06/27 03:28:33;;;;;;;18.50;16.47;;;;;;;20.13;59.61;101507.63;5037504;28;20202;-64
2021/06/27 03:30:58;;;;;;;17.83;16.10;;;;;;;20.00;60.22;101511.38;5037193;28;20174;-64
2021/06/27 03:33:24;;;;;;;18.10;16.30;;;;;;;20.36;58.63;101498.38;5051380;28;20711;-64
2021/06/27 03:35:49;;;;;;;18.03;15.93;;;;;;;20.33;58.84;101503.72;5058479;28;20169;-64
2021/06/27 03:38:20;;;;;;;18.87;17.20;;;;;;;20.59;58.38;101500.56;5060828;28;20177;-64
2021/06/27 03:40:46;;;;;;;17.47;15.63;;;;;;;20.27;58.62;101504.72;5060854;28;20170;-64
2021/06/27 03:43:13;;;;;;;17.80;16.00;;;;;;;20.33;59.00;101503.72;5060982;28;20629;-64
2021/06/27 03:45:38;;;;;;;18.37;16.20;;;;;;;20.48;58.13;101506.06;5060885;28;20506;-64
2021/06/27 03:48:07;;;;;;;16.27;14.63;;;;;;;20.67;57.56;101503.06;5060783;28;20593;-65
2021/06/27 03:50:33;;;;;;;16.43;14.83;;;;;;;20.69;57.51;101506.59;5061278;28;20256;-64
2021/06/27 03:52:59;;;;;;;16.40;14.70;;;;;;;20.10;59.17;101509.44;5060873;28;20397;-63
2021/06/27 03:55:25;;;;;;;18.23;16.40;;;;;;;20.65;57.45;101508.41;5060872;28;20482;-64
2021/06/27 03:57:50;;;;;;;16.80;15.30;;;;;;;20.10;59.19;101512.94;5061277;28;20413;-64
2021/06/27 04:00:17;;;;;;;16.23;14.83;;;;;;;20.51;58.05;101515.72;5060708;28;20174;-64
2021/06/27 04:02:42;;;;;;;17.30;15.80;;;;;;;20.94;56.51;101506.06;5060561;28;20439;-64
2021/06/27 04:05:09;;;;;;;18.30;16.40;;;;;;;20.94;56.58;101511.38;5061199;28;20422;-65
2021/06/27 04:07:34;;;;;;;18.80;16.90;;;;;;;21.09;56.64;101512.81;5060438;28;20209;-63
2021/06/27 04:10:00;;;;;;;17.27;15.47;;;;;;;21.30;56.04;101511.47;5060617;28;20888;-64
2021/06/27 04:12:25;;;;;;;18.07;16.40;;;;;;;21.01;57.17;101513.88;5060917;28;20177;-64
2021/06/27 04:14:50;;;;;;;17.23;15.57;;;;;;;21.11;56.69;101511.88;5060220;28;20491;-64
2021/06/27 04:17:19;;;;;;;17.87;15.97;;;;;;;21.02;57.05;101518.25;5060401;28;20173;-64
2021/06/27 04:19:45;;;;;;;19.83;17.67;;;;;;;20.85;58.72;101520.38;5060694;28;20470;-64
2021/06/27 04:22:10;;;;;;;19.13;17.43;;;;;;;20.85;59.08;101520.38;5060009;28;20455;-64
2021/06/27 04:24:35;;;;;;;18.43;16.73;;;;;;;20.79;59.42;101524.03;5060203;28;20308;-64
2021/06/27 04:27:01;;;;;;;17.80;16.07;;;;;;;20.74;59.82;101522.38;5060418;28;20194;-64
2021/06/27 04:29:26;;;;;;;18.43;16.77;;;;;;;20.91;59.20;101514.97;5060311;28;20445;-65
2021/06/27 04:31:52;;;;;;;20.57;18.57;;;;;;;20.90;59.10;101510.56;5060100;28;20173;-65
2021/06/27 04:34:20;;;;;;;19.43;17.50;;;;;;;20.86;58.60;101509.78;5060309;28;20446;-64
2021/06/27 04:36:45;;;;;;;19.50;17.70;;;;;;;20.80;58.75;101512.53;5060128;28;20177;-64
2021/06/27 04:39:10;;;;;;;20.67;18.67;;;;;;;21.00;58.21;101512.13;5060000;28;20430;-64
2021/06/27 04:41:36;;;;;;;19.27;17.47;;;;;;;21.02;58.31;101509.44;5060398;28;20489;-65
2021/06/27 04:44:02;;;;;;;19.33;17.70;;;;;;;21.13;58.33;101507.41;5059805;28;20209;-64
2021/06/27 04:46:28;;;;;;;19.80;18.00;;;;;;;21.16;57.92;101503.81;5059697;28;20245;-64
2021/06/27 04:48:53;;;;;;;22.90;20.70;;;;;;;21.23;57.02;101496.59;5058703;28;20444;-64
2021/06/27 04:51:20;;;;;;;24.47;22.07;;;;;;;21.45;55.71;101503.16;5059678;28;20224;-64
2021/06/27 04:53:46;;;;;;;32.33;28.90;;;;;;;21.69;55.38;101506.19;5059563;28;20244;-64
2021/06/27 04:56:11;;;;;;;26.33;23.77;;;;;;;21.36;56.77;101503.38;5060388;28;20672;-64
2021/06/27 04:58:37;;;;;;;22.40;20.20;;;;;;;21.41;56.53;101496.19;5059767;28;20173;-64
2021/06/27 05:01:02;;;;;;;23.63;21.33;;;;;;;21.31;56.29;101498.19;5059940;28;20487;-64
2021/06/27 05:03:27;;;;;;;22.73;20.53;;;;;;;21.70;55.64;101505.25;5059867;28;20190;-65
2021/06/27 05:05:53;;;;;;;20.50;18.67;;;;;;;21.79;55.54;101515.63;5059526;28;20465;-64
2021/06/27 05:08:18;;;;;;;19.40;17.60;;;;;;;21.90;55.22;101506.53;5059222;28;20209;-64
2021/06/27 05:10:43;;;;;;;19.77;17.90;;;;;;;22.03;54.76;101500.88;5060000;28;20174;-64
2021/06/27 05:13:09;;;;;;;19.77;17.77;;;;;;;22.34;54.22;101504.50;5059169;28;20173;-64
2021/06/27 05:15:34;;;;;;;19.00;17.30;;;;;;;22.10;54.74;101503.38;5059343;28;20270;-65
2021/06/27 05:17:59;;;;;;;17.67;15.97;;;;;;;22.20;55.01;101503.09;5059602;28;20170;-65
2021/06/27 05:20:25;;;;;;;19.07;17.17;;;;;;;22.43;54.18;101506.91;5059454;28;20169;-65
2021/06/27 05:22:50;;;;;;;18.17;16.57;;;;;;;22.37;54.09;101502.66;5059066;28;20483;-65
2021/06/27 05:25:15;;;;;;;17.70;16.10;;;;;;;22.64;54.29;101497.47;5058927;28;20232;-65
2021/06/27 05:27:41;;;;;;;18.20;16.60;;;;;;;22.44;54.25;101498.03;5059064;28;20448;-65
2021/06/27 05:30:07;;;;;;;17.47;16.00;;;;;;;22.19;54.78;101500.44;5059276;28;20169;-64
2021/06/27 05:32:33;;;;;;;18.10;16.43;;;;;;;22.32;54.76;101498.34;5058656;28;20193;-64
2021/06/27 05:34:58;;;;;;;18.70;16.77;;;;;;;22.31;55.60;101504.56;5058948;28;20264;-64
2021/06/27 05:37:23;;;;;;;19.80;17.97;;;;;;;21.50;56.53;101513.66;5059277;28;20184;-64
2021/06/27 05:39:49;;;;;;;19.70;17.80;;;;;;;22.14;55.64;101513.00;5058769;28;20435;-64
2021/06/27 05:42:15;;;;;;;20.27;18.33;;;;;;;22.34;54.61;101517.78;5058929;28;20425;-64
2021/06/27 05:44:40;;;;;;;18.23;16.53;;;;;;;22.83;52.96;101510.22;5052365;28;20185;-65
2021/06/27 05:47:05;;;;;;;18.90;17.20;;;;;;;22.17;54.50;101504.94;5051305;28;20467;-65
2021/06/27 05:49:31;;;;;;;18.33;16.80;;;;;;;22.76;52.60;101506.00;5058244;28;20178;-64
2021/06/27 05:51:56;;;;;;;15.97;14.53;;;;;;;22.83;51.59;101510.22;5038689;28;20544;-64
2021/06/27 05:54:21;;;;;;;17.40;15.80;;;;;;;22.70;52.75;101512.38;5038245;28;20233;-64
2021/06/27 05:56:46;;;;;;;15.63;14.23;;;;;;;23.18;50.35;101511.00;5038283;28;20170;-64
2021/06/27 05:59:12;;;;;;;17.40;15.90;;;;;;;23.26;50.80;101500.09;5038491;28;20687;-64
2021/06/27 06:01:37;;;;;;;16.97;15.40;;;;;;;23.93;48.82;101504.19;5038245;28;20408;-63
2021/06/27 06:04:03;;;;;;;16.00;14.50;;;;;;;23.95;48.01;101497.88;5057155;28;20585;-63
2021/06/27 06:06:28;;;;;;;17.70;16.20;;;;;;;24.26;48.38;101504.81;5058452;28;20201;-64
2021/06/27 06:08:53;;;;;;;14.93;13.63;;;;;;;24.32;45.69;101498.38;5058084;28;20169;-65
2021/06/27 06:11:19;;;;;;;13.57;12.40;;;;;;;24.25;45.92;101494.16;5057813;28;20187;-64
2021/06/27 06:13:45;;;;;;;13.67;12.50;;;;;;;24.26;45.93;101495.91;5058150;28;20236;-64
2021/06/27 06:16:11;;;;;;;14.30;13.10;;;;;;;24.97;44.69;101491.53;5058102;28;20185;-65
2021/06/27 06:18:39;;;;;;;14.60;13.33;;;;;;;25.91;41.90;101488.66;5058139;28;20465;-64
2021/06/27 06:21:05;;;;;;;13.47;12.37;;;;;;;27.33;39.01;101482.22;5058783;28;20411;-64
2021/06/27 06:23:30;;;;;;;13.03;12.03;;;;;;;27.66;37.68;101481.53;5040150;28;20535;-64
2021/06/27 06:25:55;;;;;;;13.43;12.20;;;;;;;28.33;36.72;101481.66;5057988;28;20554;-65
2021/06/27 06:28:22;;;;;;;11.30;10.40;;;;;;;28.10;37.70;101480.19;5058249;28;20224;-65
2021/06/27 06:30:47;;;;;;;12.17;11.20;;;;;;;27.77;37.97;101487.19;5057841;28;20412;-65
2021/06/27 06:33:13;;;;;;;11.63;10.73;;;;;;;27.42;38.08;101489.84;5057761;28;20197;-65
2021/06/27 06:35:42;;;;;;;10.97;10.17;;;;;;;30.49;34.46;101487.25;5058438;28;20177;-64
2021/06/27 06:38:08;;;;;;;11.73;10.83;;;;;;;30.66;32.06;101488.84;5057856;28;20447;-65
2021/06/27 06:40:34;;;;;;;10.93;9.83;;;;;;;29.20;34.93;101502.84;5057781;28;20459;-64
2021/06/27 06:43:00;;;;;;;11.30;10.33;;;;;;;28.39;36.88;101500.13;5058168;28;20412;-65
2021/06/27 06:45:25;;;;;;;11.50;10.60;;;;;;;26.92;40.21;101493.97;5057656;28;20422;-65
2021/06/27 06:47:51;;;;;;;12.53;11.43;;;;;;;27.46;40.10;101499.44;5057592;28;20516;-65
2021/06/27 06:50:16;;;;;;;13.40;12.30;;;;;;;27.40;39.61;101494.41;5058094;28;20205;-65
2021/06/27 06:52:42;;;;;;;12.83;11.83;;;;;;;28.39;37.92;101492.06;5057688;28;20500;-65
2021/06/27 06:55:07;;;;;;;14.17;12.80;;;;;;;30.16;34.49;101491.91;5057667;28;20535;-65
2021/06/27 06:57:33;;;;;;;13.00;12.07;;;;;;;29.43;35.73;101489.06;5058146;28;20170;-65
2021/06/27 06:59:58;;;;;;;12.00;11.00;;;;;;;30.21;34.48;101495.13;5057627;28;20192;-65
2021/06/27 07:02:23;;;;;;;12.00;11.10;;;;;;;30.08;33.98;101491.50;5057540;28;20463;-65
2021/06/27 07:04:48;;;;;;;11.33;10.50;;;;;;;29.36;35.78;101488.53;5057696;28;20173;-65
2021/06/27 07:07:14;;;;;;;10.50;9.60;;;;;;;28.28;37.17;101494.44;5056947;28;20210;-65
2021/06/27 07:09:39;;;;;;;10.97;10.17;;;;;;;26.80;39.79;101495.41;5057627;28;20173;-65
2021/06/27 07:12:05;;;;;;;11.33;10.53;;;;;;;26.99;39.99;101489.22;5061147;28;20178;-64
2021/06/27 07:14:30;;;;;;;12.53;11.63;;;;;;;29.01;37.00;101486.91;5061497;28;20181;-64
2021/06/27 07:16:55;;;;;;;12.17;11.17;;;;;;;28.97;36.79;101484.47;5061611;28;20184;-66
2021/06/27 07:19:21;;;;;;;12.80;11.80;;;;;;;29.50;36.06;101483.25;5062066;28;20166;-66
2021/06/27 07:21:46;;;;;;;10.80;10.00;;;;;;;30.98;32.79;101473.31;5061455;28;20185;-65
2021/06/27 07:24:11;;;;;;;11.23;10.27;;;;;;;30.38;33.74;101479.81;5061071;28;20607;-64
2021/06/27 07:26:37;;;;;;;10.80;9.90;;;;;;;30.81;32.89;101469.03;5061008;28;20459;-65
2021/06/27 07:29:03;;;;;;;11.00;10.00;;;;;;;30.90;33.11;101473.81;5059815;28;20186;-65
2021/06/27 07:31:29;;;;;;;10.43;9.60;;;;;;;31.49;31.69;101475.38;5060345;28;20554;-65
2021/06/27 07:33:54;;;;;;;9.03;8.33;;;;;;;31.10;31.24;101468.97;5061361;28;20447;-65
2021/06/27 07:36:19;;;;;;;8.30;7.70;;;;;;;32.14;29.61;101467.41;5061114;28;20215;-65
2021/06/27 07:38:45;;;;;;;9.00;8.27;;;;;;;32.42;28.43;101469.03;5060918;28;20174;-65
2021/06/27 07:41:12;;;;;;;8.67;8.00;;;;;;;32.72;28.13;101471.38;5061519;28;20166;-65
2021/06/27 07:43:38;;;;;;;7.40;6.80;;;;;;;32.74;28.11;101471.28;5060873;28;20166;-66
2021/06/27 07:46:03;;;;;;;8.33;7.73;;;;;;;32.29;28.59;101476.28;5060594;28;20626;-66
2021/06/27 07:48:28;;;;;;;8.70;8.00;;;;;;;32.35;29.16;101475.84;5061387;28;20172;-65
2021/06/27 07:50:54;;;;;;;8.57;7.97;;;;;;;32.10;29.15;101479.38;5060832;28;20213;-67
2021/06/27 07:53:19;;;;;;;7.83;7.33;;;;;;;32.67;28.08;101480.78;5060721;28;20556;-66
2021/06/27 07:55:44;;;;;;;8.40;7.80;;;;;;;32.40;28.17;101477.22;5061285;28;20174;-66
2021/06/27 07:58:10;;;;;;;8.30;7.60;;;;;;;32.79;27.93;101476.34;5060599;28;20176;-66
2021/06/27 08:00:35;;;;;;;8.60;8.00;;;;;;;31.52;29.30;101471.63;5060741;28;20196;-66
2021/06/27 08:03:01;;;;;;;8.90;8.03;;;;;;;31.64;29.44;101472.66;5060190;28;20174;-65
2021/06/27 08:05:26;;;;;;;8.93;8.23;;;;;;;32.64;28.91;101464.78;5060373;28;20519;-65
2021/06/27 08:07:51;;;;;;;7.93;7.23;;;;;;;32.54;29.33;101469.97;5060445;28;20251;-66
2021/06/27 08:10:17;;;;;;;8.50;7.90;;;;;;;32.80;28.88;101467.25;5060794;28;20170;-67
2021/06/27 08:12:42;;;;;;;8.40;7.60;;;;;;;32.34;29.32;101468.72;5060234;28;20281;-65
2021/06/27 08:15:10;;;;;;;8.20;7.60;;;;;;;31.96;30.29;101465.03;5050424;28;20178;-65
2021/06/27 08:17:36;;;;;;;9.63;8.93;;;;;;;31.86;30.68;101467.50;5056329;28;20185;-66
2021/06/27 08:20:03;;;;;;;10.83;10.03;;;;;;;30.23;33.22;101465.50;5056780;28;20417;-66
2021/06/27 08:22:28;;;;;;;10.73;9.83;;;;;;;30.29;33.46;101473.16;5038780;28;20247;-67
2021/06/27 08:24:54;;;;;;;10.17;9.37;;;;;;;31.35;32.25;101470.91;5039957;28;20464;-66
2021/06/27 08:27:19;;;;;;;10.00;9.20;;;;;;;31.97;30.71;101465.88;5040074;28;20637;-65
2021/06/27 08:29:45;;;;;;;9.93;9.17;;;;;;;30.99;32.59;101464.28;5040169;28;20185;-66
2021/06/27 08:32:10;;;;;;;11.03;10.23;;;;;;;30.54;32.72;101464.44;5042664;28;20413;-66
2021/06/27 08:34:35;;;;;;;11.10;10.10;;;;;;;31.82;31.30;101457.03;5059888;28;20517;-64
2021/06/27 08:37:01;;;;;;;11.73;10.90;;;;;;;31.58;32.04;101450.50;5060101;28;20216;-64
2021/06/27 08:39:26;;;;;;;10.17;9.37;;;;;;;34.33;28.01;101439.44;5059677;28;20550;-66
2021/06/27 08:41:51;;;;;;;10.10;9.30;;;;;;;32.89;29.54;101442.28;5059439;28;20201;-66
2021/06/27 08:44:17;;;;;;;10.90;10.10;;;;;;;31.56;31.46;101449.72;5060114;28;20166;-67
2021/06/27 08:46:44;;;;;;;10.37;9.60;;;;;;;33.04;29.82;101435.75;5059115;28;20205;-66
2021/06/27 08:49:11;;;;;;;10.53;9.50;;;;;;;34.93;26.32;101442.72;5058825;28;20177;-65
2021/06/27 08:51:39;;;;;;;10.30;9.60;;;;;;;32.12;30.08;101450.47;5060054;28;20436;-65
2021/06/27 08:54:04;;;;;;;9.00;8.40;;;;;;;31.37;31.74;101446.56;5058896;28;20416;-64
2021/06/27 08:56:30;;;;;;;12.20;11.13;;;;;;;29.82;34.84;101456.28;5058754;28;20711;-65
2021/06/27 08:58:55;;;;;;;10.37;9.57;;;;;;;30.45;33.57;101448.88;5059841;28;20567;-65
2021/06/27 09:01:21;;;;;;;9.83;9.13;;;;;;;31.17;32.31;101445.22;5059548;28;20432;-65
2021/06/27 09:03:48;;;;;;;10.43;9.60;;;;;;;32.67;30.35;101445.69;5059514;28;20223;-64
2021/06/27 09:06:30;;;;;;;9.83;9.13;;;;;;;32.25;30.89;101435.16;5059893;28;20874;-65
2021/06/27 09:09:17;;;;;;;10.53;9.60;;;;;;;32.13;31.08;101436.88;5058705;28;20423;-65
2021/06/27 09:12:01;;;;;;;9.93;8.40;;;;;;;31.34;31.82;101438.69;5055683;28;20424;-66
2021/06/27 09:14:33;;;;;;;9.70;9.00;;;;;;;31.52;31.81;101445.50;5059368;28;20416;-65
2021/06/27 09:17:15;;;;;;;9.43;8.53;;;;;;;31.98;31.04;101433.41;5059249;28;20427;-66
2021/06/27 09:19:55;;;;;;;8.93;8.33;;;;;;;32.36;29.49;101429.00;5059219;28;20485;-67
2021/06/27 09:22:30;;;;;;;9.27;8.47;;;;;;;32.96;29.70;101427.31;5059065;28;20826;-67
2021/06/27 09:25:19;;;;;;;9.33;8.53;;;;;;;32.91;28.98;101435.78;5058841;28;20720;-66
2021/06/27 09:27:47;;;;;;;8.97;8.00;;;;;;;33.48;28.76;101437.94;5059022;28;20448;-66
2021/06/27 09:30:13;;;;;;;9.30;8.60;;;;;;;33.66;28.55;101432.94;5058110;28;20412;-66
2021/06/27 09:33:00;;;;;;;8.77;8.13;;;;;;;31.13;32.55;101428.38;5058725;28;20428;-66
2021/06/27 09:35:46;;;;;;;9.37;8.67;;;;;;;30.40;33.86;101430.31;5058842;28;20416;-66
2021/06/27 09:38:42;;;;;;;8.90;8.20;;;;;;;30.22;34.05;101437.72;5058883;28;20905;-65
2021/06/27 09:41:10;;;;;;;9.77;8.97;;;;;;;31.69;31.33;101430.94;5058765;28;20465;-65
2021/06/27 09:43:36;;;;;;;9.40;8.60;;;;;;;33.20;29.66;101429.16;5058622;28;20489;-65
2021/06/27 09:46:12;;;;;;;10.60;9.80;;;;;;;31.75;30.97;101424.25;5058627;28;20515;-65
2021/06/27 09:48:51;;;;;;;9.00;8.40;;;;;;;31.91;31.36;101430.28;5058690;28;20224;-65
2021/06/27 09:51:17;;;;;;;10.30;9.37;;;;;;;31.16;32.91;101441.66;5058730;28;20676;-66
2021/06/27 09:53:45;;;;;;;9.47;8.77;;;;;;;30.04;34.21;101436.19;5058310;28;20408;-64
2021/06/27 09:56:10;;;;;;;9.23;8.53;;;;;;;31.09;32.99;101434.06;5058283;28;20408;-65
2021/06/27 09:58:36;;;;;;;10.70;9.90;;;;;;;31.99;31.35;101432.44;5058566;28;20419;-66
2021/06/27 10:01:03;;;;;;;10.43;9.70;;;;;;;31.84;31.27;101433.50;5057996;28;20216;-65
2021/06/27 10:03:30;;;;;;;9.70;8.90;;;;;;;31.53;32.35;101428.38;5058210;28;20173;-65
2021/06/27 10:06:08;;;;;;;9.20;8.50;;;;;;;32.27;30.48;101433.19;5057473;28;20744;-66
2021/06/27 10:08:33;;;;;;;10.27;9.40;;;;;;;30.22;34.19;101439.53;5058264;28;20461;-65
2021/06/27 10:11:11;;;;;;;9.30;8.50;;;;;;;29.78;35.02;101432.34;5058283;28;20822;-64
2021/06/27 10:13:36;;;;;;;8.43;7.83;;;;;;;30.06;34.58;101436.94;5058195;28;20256;-64
2021/06/27 10:16:02;;;;;;;8.63;8.03;;;;;;;31.96;31.49;101431.78;5058139;28;20440;-64
2021/06/27 10:18:27;;;;;;;9.30;8.50;;;;;;;32.73;29.53;101427.22;5057541;28;20169;-65
2021/06/27 10:20:53;;;;;;;8.40;7.80;;;;;;;32.44;30.10;101425.75;5057389;28;20559;-63
2021/06/27 10:23:19;;;;;;;8.20;7.60;;;;;;;32.61;30.29;101422.69;5057868;28;20182;-64
2021/06/27 10:25:44;;;;;;;9.13;8.43;;;;;;;32.78;30.03;101423.31;5057595;28;20181;-64
2021/06/27 10:28:10;;;;;;;9.10;8.40;;;;;;;31.65;31.46;101423.13;5057803;28;20209;-64
2021/06/27 10:30:35;;;;;;;8.27;7.43;;;;;;;30.56;32.07;101424.84;5052615;28;20171;-64
2021/06/27 10:33:01;;;;;;;7.53;7.03;;;;;;;31.75;30.41;101421.53;5048069;28;20583;-64
2021/06/27 10:35:26;;;;;;;7.43;6.83;;;;;;;32.20;29.65;101419.28;5036905;28;20171;-64
2021/06/27 10:37:52;;;;;;;7.53;6.90;;;;;;;32.30;29.32;101424.03;5052117;28;20177;-64
2021/06/27 10:40:18;;;;;;;7.40;6.80;;;;;;;34.47;27.09;101406.72;5057083;28;20222;-64
2021/06/27 10:42:50;;;;;;;8.30;7.60;;;;;;;32.62;29.84;101423.53;5057326;28;20431;-65
2021/06/27 10:45:19;;;;;;;7.50;6.90;;;;;;;30.89;32.80;101417.34;5056912;28;20844;-65
2021/06/27 10:47:44;;;;;;;7.63;7.03;;;;;;;30.17;34.40;101425.50;5057483;28;20464;-63
2021/06/27 10:50:10;;;;;;;7.77;6.97;;;;;;;29.98;35.34;101421.28;5057183;28;20699;-64
2021/06/27 10:52:57;;;;;;;8.70;8.10;;;;;;;31.09;31.57;101410.69;5057555;28;20222;-65
2021/06/27 10:55:26;;;;;;;7.83;7.13;;;;;;;32.15;30.26;101407.06;5057182;28;20499;-64
2021/06/27 10:58:12;;;;;;;8.10;7.37;;;;;;;32.13;29.59;101407.19;5057275;28;20420;-63
2021/06/27 11:00:56;;;;;;;7.63;7.03;;;;;;;29.70;33.87;101405.94;5057366;28;20818;-66
2021/06/27 11:03:28;;;;;;;8.27;7.57;;;;;;;31.46;32.03;101396.56;5057304;28;20408;-65
2021/06/27 11:05:58;;;;;;;8.77;8.07;;;;;;;30.64;33.34;101389.38;5057219;28;20427;-65
2021/06/27 11:08:35;;;;;;;7.23;6.73;;;;;;;30.27;35.40;101396.22;5057229;28;20466;-65
2021/06/27 11:11:06;;;;;;;11.43;9.00;;;;;;;31.71;32.56;101387.69;5057285;28;20411;-65
2021/06/27 11:13:32;;;;;;;9.03;7.60;;;;;;;29.38;36.07;101406.06;5056313;28;20412;-67